Hovedside
METAR-TAF:

METAR-TAF

Lufthavner :

Livingstone, Zambia

breddegrad: 17-49-18S, lengdegrad: 025-49-22E, høyde over havet: 991 m

Gjeldene værobservasjon

Denne rapporten ble laget for 8 timer og 0 minutter siden, klokken 12:00 UTC
Vind 2 kt fra skiftende retning
Temperatur 35°C
Luftfuktighet 22%
Trykk 1016 hPa
Sikt 10 km eller mer
ingen skyer under 1500 m og ingen bygeskyer

METAR: FLHN 211200Z VRB02KT CAVOK 35/10 Q1016

Tid: 22:00 (20:00 UTC)


TAF: fraværende

Værobservasjoner og værvarsel for over 4000 flyplasser (METAR- og TAF-rapporter).

Tilgjengelige stasjoner er representert av de røde og gule prikkene på kartet.

Hold musepekeren over prikken for å se navnet på stasjonen.

Klikk så for å se værobservasjoner og -varsler.

For å forandre kartet kan du klikke på den grønne knappen med svart kryss for å zoome inn, på den grønne knappen med strek for å zoome ut, eller på de grønne pilene for å se tilstøtende kart.


METAR-TAF: